Terminal Aerodrome Forecast
Issued by NWS

Home | Current Version | Previous Version | Text Only | Print | Product List | Glossary On
Versions: 1 2 3 4 5 6 7 8 9 10 11 12 13 14
000
FTUS46 KSEW 211100
TAFPAE
TAF
KPAE 211120Z 2112/2212 13004KT P6SM BKN150
     FM211800 31007KT P6SM SCT060 BKN150
     FM220200 34007KT P6SM -SHRA BKN030 OVC045
     FM221000 33004KT P6SM VCSH BKN030 BKN045=

USA.gov is the U.S. government's official web portal to all federal, state and local government web resources and services.